Time;durP1;ratioP1;P1;durP2;ratioP2;P2;SDS_P1;SDS_P2;PMS_P1;PMS_P2;Temp;Humidity;BMP_temperature;BMP_pressure;BME280_temperature;BME280_humidity;BME280_pressure;Samples;Min_cycle;Max_cycle;Signal;HPM_P1;HPM_P2
2022/03/02 00:01:15;;;;;;;0.00;0.00;;;;;;;0.88;100.00;102923.94;10532266;28;20023;-68
2022/03/02 00:06:15;;;;;;;0.00;0.00;;;;;;;0.86;100.00;102920.47;10532736;28;20297;-69
2022/03/02 00:11:16;;;;;;;0.10;0.10;;;;;;;0.82;100.00;102933.75;10532275;28;20482;-69
2022/03/02 00:16:19;;;;;;;0.00;0.00;;;;;;;0.78;100.00;102927.72;10531807;28;20024;-69
2022/03/02 00:21:20;;;;;;;0.00;0.00;;;;;;;0.71;100.00;102926.19;10531715;28;20047;-68
2022/03/02 00:26:20;;;;;;;0.07;0.07;;;;;;;0.64;100.00;102919.38;10531146;28;20051;-69
2022/03/02 00:31:20;;;;;;;0.00;0.00;;;;;;;0.59;100.00;102927.41;10531995;28;20330;-68
2022/03/02 00:36:21;;;;;;;0.10;0.10;;;;;;;0.59;100.00;102927.41;10531542;28;20386;-68
2022/03/02 00:41:21;;;;;;;0.00;0.00;;;;;;;0.57;100.00;102917.84;10531628;28;20374;-68
2022/03/02 00:46:26;;;;;;;0.00;0.00;;;;;;;0.48;100.00;102915.47;10531556;28;20410;-68
2022/03/02 00:51:27;;;;;;;0.00;0.00;;;;;;;0.38;100.00;102897.41;10531121;28;20024;-69
2022/03/02 00:56:27;;;;;;;0.10;0.10;;;;;;;0.35;100.00;102904.47;10530922;28;20043;-68
2022/03/02 01:01:28;;;;;;;0.08;0.08;;;;;;;0.32;100.00;102902.81;10530571;28;20036;-69
2022/03/02 01:06:28;;;;;;;0.00;0.00;;;;;;;0.38;100.00;102905.25;10530857;28;20375;-69
2022/03/02 01:11:29;;;;;;;0.00;0.00;;;;;;;0.43;100.00;102903.34;10531764;28;20024;-68
2022/03/02 01:16:29;;;;;;;0.00;0.00;;;;;;;0.49;100.00;102889.19;10530291;28;20262;-68
2022/03/02 01:21:30;;;;;;;0.10;0.10;;;;;;;0.52;100.00;102889.13;10530568;28;20100;-68
2022/03/02 01:26:31;;;;;;;0.00;0.00;;;;;;;0.51;100.00;102876.06;10530251;28;20024;-68
2022/03/02 01:31:32;;;;;;;0.00;0.00;;;;;;;0.51;100.00;102882.16;10530286;28;20016;-68
2022/03/02 01:36:32;;;;;;;0.00;0.00;;;;;;;0.55;100.00;102877.69;10532476;28;20023;-68
2022/03/02 01:41:34;;;;;;;0.00;0.00;;;;;;;0.59;100.00;102869.69;10537923;28;20020;-68
2022/03/02 01:46:35;;;;;;;0.00;0.00;;;;;;;0.61;100.00;102865.28;10537895;28;20039;-68
2022/03/02 01:51:35;;;;;;;0.00;0.00;;;;;;;0.59;100.00;102872.31;10497407;28;20032;-68
2022/03/02 01:56:36;;;;;;;0.00;0.00;;;;;;;0.54;100.00;102861.09;10495598;28;20032;-68
2022/03/02 02:01:36;;;;;;;0.00;0.00;;;;;;;0.51;100.00;102868.19;10477052;28;20017;-68
2022/03/02 02:06:37;;;;;;;0.10;0.10;;;;;;;0.51;100.00;102866.44;10522335;28;20046;-68
2022/03/02 02:11:37;;;;;;;0.00;0.00;;;;;;;0.52;100.00;102862.88;10536690;28;20042;-68
2022/03/02 02:16:38;;;;;;;0.00;0.00;;;;;;;0.57;100.00;102861.00;10536600;28;20607;-68
2022/03/02 02:21:38;;;;;;;0.08;0.08;;;;;;;0.61;100.00;102852.16;10495896;28;20031;-69
2022/03/02 02:26:39;;;;;;;0.00;0.00;;;;;;;0.62;100.00;102848.63;10494428;28;20036;-69
2022/03/02 02:31:40;;;;;;;0.10;0.10;;;;;;;0.59;100.00;102846.09;10518417;28;20024;-69
2022/03/02 02:36:42;;;;;;;0.00;0.00;;;;;;;0.54;100.00;102840.13;10535941;28;20508;-69
2022/03/02 02:41:42;;;;;;;0.10;0.10;;;;;;;0.54;100.00;102839.25;10532875;28;20475;-68
2022/03/02 02:46:44;;;;;;;0.00;0.00;;;;;;;0.54;100.00;102827.00;10493356;28;20124;-69
2022/03/02 02:51:44;;;;;;;0.00;0.00;;;;;;;0.56;100.00;102816.47;10493112;28;20434;-69
2022/03/02 02:56:44;;;;;;;0.10;0.10;;;;;;;0.56;100.00;102816.47;10515283;28;20047;-69
2022/03/02 03:01:45;;;;;;;0.10;0.10;;;;;;;0.53;100.00;102812.19;10492855;28;20111;-69
2022/03/02 03:06:45;;;;;;;0.00;0.00;;;;;;;0.55;100.00;102817.38;10498408;28;20035;-69
2022/03/02 03:11:46;;;;;;;0.10;0.10;;;;;;;0.53;100.00;102819.19;10534261;28;20341;-69
2022/03/02 03:16:47;;;;;;;0.00;0.00;;;;;;;0.50;100.00;102808.81;10514057;28;20036;-69
2022/03/02 03:21:47;;;;;;;0.03;0.03;;;;;;;0.42;100.00;102796.75;10474053;28;20027;-69
2022/03/02 03:26:47;;;;;;;0.00;0.00;;;;;;;0.32;100.00;102791.81;10491876;28;20271;-69
2022/03/02 03:31:47;;;;;;;0.00;0.00;;;;;;;0.21;100.00;102782.53;10491904;28;20013;-69
2022/03/02 03:36:48;;;;;;;0.00;0.00;;;;;;;0.12;100.00;102790.66;10492280;28;20024;-69
2022/03/02 03:41:48;;;;;;;0.00;0.00;;;;;;;0.09;100.00;102797.72;10514244;28;20023;-68
2022/03/02 03:46:48;;;;;;;0.10;0.10;;;;;;;0.10;100.00;102799.47;10513333;28;20369;-68
2022/03/02 03:51:49;;;;;;;0.10;0.10;;;;;;;0.11;100.00;102809.03;10514086;28;20337;-68
2022/03/02 03:56:49;;;;;;;0.10;0.10;;;;;;;0.08;100.00;102798.63;10510073;28;20388;-68
2022/03/02 04:01:49;;;;;;;0.10;0.10;;;;;;;-0.06;100.00;102791.16;10488595;22;20425;-74
2022/03/02 04:06:50;;;;;;;0.00;0.00;;;;;;;-0.20;100.00;102794.16;10501270;28;20379;-74
2022/03/02 04:11:50;;;;;;;0.05;0.05;;;;;;;-0.33;100.00;102783.16;10490002;28;20066;-74
2022/03/02 04:16:51;;;;;;;0.10;0.10;;;;;;;-0.42;100.00;102787.78;10497409;28;20073;-74
2022/03/02 04:21:51;;;;;;;0.10;0.10;;;;;;;-0.58;100.00;102780.34;10499298;28;20020;-74
2022/03/02 04:26:51;;;;;;;0.10;0.10;;;;;;;-0.70;100.00;102778.88;10530182;28;20266;-74
2022/03/02 04:31:52;;;;;;;0.08;0.08;;;;;;;-0.75;100.00;102772.06;10534129;28;20312;-74
2022/03/02 04:36:53;;;;;;;0.10;0.10;;;;;;;-0.76;100.00;102758.06;10533794;28;20020;-74
2022/03/02 04:41:53;;;;;;;0.10;0.10;;;;;;;-0.79;100.00;102750.31;10515666;28;20273;-74
2022/03/02 04:46:54;;;;;;;0.00;0.00;;;;;;;-0.89;100.00;102740.13;10528909;28;20082;-74
2022/03/02 04:51:55;;;;;;;0.00;0.00;;;;;;;-0.98;100.00;102747.31;10496625;28;20271;-75
2022/03/02 04:56:55;;;;;;;0.10;0.10;;;;;;;-1.07;100.00;102736.22;10491715;28;20262;-75
2022/03/02 05:01:55;;;;;;;0.10;0.10;;;;;;;-1.18;100.00;102739.94;10520772;28;20032;-75
2022/03/02 05:06:56;;;;;;;0.10;0.10;;;;;;;-1.15;100.00;102745.09;10515666;28;20300;-75
2022/03/02 05:11:56;;;;;;;0.10;0.10;;;;;;;-1.22;100.00;102740.91;10515419;28;20016;-74
2022/03/02 05:16:56;;;;;;;0.10;0.10;;;;;;;-1.40;100.00;102739.59;10523085;28;20016;-74
2022/03/02 05:21:57;;;;;;;0.10;0.10;;;;;;;-1.45;100.00;102732.75;10519117;28;20286;-75
2022/03/02 05:26:57;;;;;;;0.03;0.03;;;;;;;-1.53;100.00;102719.84;10517541;28;20016;-75
2022/03/02 05:31:58;;;;;;;0.10;0.10;;;;;;;-1.57;100.00;102720.81;10515031;28;20051;-74
2022/03/02 05:36:59;;;;;;;0.10;0.10;;;;;;;-1.58;100.00;102732.16;10506218;28;20023;-75
2022/03/02 05:41:59;;;;;;;0.10;0.10;;;;;;;-1.63;100.00;102739.22;10531522;28;20462;-75
2022/03/02 05:47:00;;;;;;;0.10;0.10;;;;;;;-1.66;100.00;102740.19;10523855;28;20031;-75
2022/03/02 05:52:01;;;;;;;0.10;0.10;;;;;;;-1.64;100.00;102748.81;10518686;28;20024;-74
2022/03/02 05:57:01;;;;;;;0.10;0.10;;;;;;;-1.61;100.00;102740.91;10512792;28;20016;-75
2022/03/02 06:02:01;;;;;;;0.17;0.17;;;;;;;-1.62;100.00;102749.66;10514370;28;20051;-75
2022/03/02 06:07:02;;;;;;;0.10;0.10;;;;;;;-1.62;100.00;102754.03;10521030;28;20382;-75
2022/03/02 06:12:03;;;;;;;0.10;0.10;;;;;;;-1.58;100.00;102755.69;10531392;28;20498;-74
2022/03/02 06:17:03;;;;;;;0.10;0.10;;;;;;;-1.55;100.00;102771.28;10509284;28;20023;-74
2022/03/02 06:22:05;;;;;;;0.20;0.20;;;;;;;-1.45;100.00;102783.28;10518483;28;20047;-75
2022/03/02 06:27:05;;;;;;;0.10;0.10;;;;;;;-1.11;100.00;102772.03;10507879;28;20106;-75
2022/03/02 06:32:06;;;;;;;0.10;0.10;;;;;;;-0.97;100.00;102780.41;10488619;28;20378;-75
2022/03/02 06:37:06;;;;;;;0.00;0.00;;;;;;;-0.70;100.00;102785.84;10509693;28;20471;-75
2022/03/02 06:42:16;;;;;;;0.10;0.10;;;;;;;-0.65;100.00;102793.59;10513785;28;20087;-75
2022/03/02 06:47:21;;;;;;;0.10;0.10;;;;;;;-0.34;100.00;102785.81;10525843;28;20020;-74
2022/03/02 06:52:27;;;;;;;0.00;0.00;;;;;;;0.26;100.00;102789.38;10519671;28;20016;-75
2022/03/02 06:57:29;;;;;;;0.00;0.00;;;;;;;1.13;100.00;102789.31;10513973;28;20085;-75
2022/03/02 07:02:44;;;;;;;0.10;0.10;;;;;;;1.83;100.00;102790.44;10501181;28;20039;-75
2022/03/02 07:07:46;;;;;;;0.00;0.00;;;;;;;2.69;100.00;102782.84;10527609;28;20020;-75
2022/03/02 07:12:46;;;;;;;0.05;0.05;;;;;;;3.42;100.00;102776.34;10513729;28;20060;-75
2022/03/02 07:17:47;;;;;;;0.00;0.00;;;;;;;4.16;100.00;102776.63;10523647;28;20037;-75
2022/03/02 07:22:52;;;;;;;0.00;0.00;;;;;;;4.93;95.06;102775.63;10508901;28;20062;-74
2022/03/02 07:27:55;;;;;;;0.00;0.00;;;;;;;5.43;91.02;102772.25;10510262;28;20208;-73
2022/03/02 07:33:01;;;;;;;0.00;0.00;;;;;;;5.54;88.52;102777.84;10511672;28;20016;-73
2022/03/02 07:38:03;;;;;;;0.00;0.00;;;;;;;5.45;88.59;102770.41;10511621;28;20386;-73
2022/03/02 07:43:03;;;;;;;0.10;0.10;;;;;;;5.67;87.76;102767.50;10486529;28;20016;-73
2022/03/02 07:48:04;;;;;;;0.10;0.10;;;;;;;5.84;86.34;102770.09;10511756;28;20533;-73
2022/03/02 07:53:05;;;;;;;0.00;0.00;;;;;;;6.18;85.16;102784.22;10503516;28;20629;-73
2022/03/02 07:58:06;;;;;;;0.00;0.00;;;;;;;6.32;82.81;102788.78;10509954;28;20027;-73
2022/03/02 08:03:09;;;;;;;0.00;0.00;;;;;;;5.86;85.26;102799.97;10502198;28;20039;-73
2022/03/02 08:08:10;;;;;;;0.10;0.10;;;;;;;5.93;85.62;102802.31;10520685;28;20362;-73
2022/03/02 08:13:12;;;;;;;0.00;0.00;;;;;;;6.17;86.65;102800.16;10527144;28;20031;-73
2022/03/02 08:18:12;;;;;;;0.10;0.10;;;;;;;5.98;85.21;102813.53;10514212;28;20095;-73
2022/03/02 08:23:12;;;;;;;0.00;0.00;;;;;;;5.91;85.56;102799.75;10511798;28;20023;-73
2022/03/02 08:28:14;;;;;;;0.08;0.08;;;;;;;6.30;86.05;102804.72;10529267;28;20035;-73
2022/03/02 08:33:27;;;;;;;0.10;0.10;;;;;;;6.00;84.52;102812.53;10507497;28;20017;-73
2022/03/02 08:38:27;;;;;;;0.10;0.10;;;;;;;6.30;86.32;102802.09;10516179;28;20427;-73
2022/03/02 08:43:27;;;;;;;0.10;0.10;;;;;;;6.43;83.04;102810.22;10522678;28;20040;-73
2022/03/02 08:48:28;;;;;;;0.10;0.10;;;;;;;6.49;83.92;102803.75;10521273;28;20020;-73
2022/03/02 08:53:30;;;;;;;0.00;0.00;;;;;;;6.33;81.79;102793.97;10509777;28;20034;-73
2022/03/02 08:58:32;;;;;;;0.10;0.10;;;;;;;6.44;83.58;102795.19;10513760;28;20582;-72
2022/03/02 09:03:34;;;;;;;0.10;0.10;;;;;;;6.49;83.31;102794.00;10509741;28;20107;-73
2022/03/02 09:08:34;;;;;;;0.00;0.00;;;;;;;6.73;83.78;102775.03;10512844;28;20055;-72
2022/03/02 09:13:37;;;;;;;0.00;0.00;;;;;;;6.88;82.70;102781.25;10522342;28;20690;-72
2022/03/02 09:18:37;;;;;;;0.00;0.00;;;;;;;6.71;81.46;102785.72;10507789;28;20016;-73
2022/03/02 09:23:41;;;;;;;0.05;0.05;;;;;;;6.60;82.13;102771.38;10514390;28;20017;-73
2022/03/02 09:28:46;;;;;;;0.00;0.00;;;;;;;6.38;82.58;102759.31;10515716;28;20035;-73
2022/03/02 09:33:55;;;;;;;0.00;0.00;;;;;;;6.16;82.67;102772.88;10511244;28;20024;-73
2022/03/02 09:38:55;;;;;;;0.00;0.00;;;;;;;6.17;83.60;102774.59;10518156;28;20016;-73
2022/03/02 09:43:58;;;;;;;0.03;0.03;;;;;;;6.10;83.84;102770.56;10525974;28;20397;-73
2022/03/02 09:49:05;;;;;;;0.00;0.00;;;;;;;6.06;82.96;102754.00;10522878;28;20258;-73
2022/03/02 09:54:06;;;;;;;0.00;0.00;;;;;;;6.07;81.34;102766.28;10520814;28;20065;-73
2022/03/02 09:59:08;;;;;;;0.00;0.00;;;;;;;6.14;80.75;102758.88;10515595;28;20081;-72
2022/03/02 10:04:21;;;;;;;0.10;0.10;;;;;;;6.38;80.74;102756.69;10522462;22;20033;-69
2022/03/02 10:09:22;;;;;;;0.00;0.00;;;;;;;6.43;78.16;102754.63;10494934;28;20038;-71
2022/03/02 10:14:22;;;;;;;0.00;0.00;;;;;;;6.53;78.23;102758.47;10488624;28;20027;-71
2022/03/02 10:19:23;;;;;;;0.00;0.00;;;;;;;6.61;77.43;102744.81;10489965;28;20486;-71
2022/03/02 10:24:23;;;;;;;0.00;0.00;;;;;;;6.74;77.40;102751.09;10492553;28;20379;-71
2022/03/02 10:29:31;;;;;;;0.00;0.00;;;;;;;6.87;75.14;102742.47;10494723;28;20056;-71
2022/03/02 10:34:37;;;;;;;0.00;0.00;;;;;;;6.82;75.79;102747.19;10480779;28;20444;-71
2022/03/02 10:40:05;;;;;;;0.08;0.08;;;;;;;6.74;75.89;102745.81;10487703;28;20023;-71
2022/03/02 10:45:25;;;;;;;0.00;0.00;;;;;;;6.80;74.51;102734.00;10490746;28;20064;-71
2022/03/02 10:50:29;;;;;;;0.00;0.00;;;;;;;6.69;72.97;102729.34;10486677;28;20035;-71
2022/03/02 10:55:34;;;;;;;0.00;0.00;;;;;;;6.65;74.08;102725.16;10485852;28;20099;-71
2022/03/02 11:00:35;;;;;;;0.00;0.00;;;;;;;6.65;73.10;102721.66;10493010;28;20013;-71
2022/03/02 11:05:35;;;;;;;0.00;0.00;;;;;;;6.68;77.30;102724.97;10492871;28;20440;-71
2022/03/02 11:10:40;;;;;;;0.00;0.00;;;;;;;6.73;73.18;102722.91;10487989;28;20800;-71
2022/03/02 11:15:51;;;;;;;0.00;0.00;;;;;;;6.66;72.50;102716.28;10492028;28;20395;-70
2022/03/02 11:20:58;;;;;;;0.00;0.00;;;;;;;6.83;77.22;102709.16;10493369;28;20086;-70
2022/03/02 11:26:08;;;;;;;0.10;0.10;;;;;;;6.80;78.84;102702.22;10503279;28;20025;-70
2022/03/02 11:31:08;;;;;;;0.00;0.00;;;;;;;6.79;74.43;102695.22;10495355;28;20043;-71
2022/03/02 11:36:17;;;;;;;0.00;0.00;;;;;;;6.79;78.13;102696.06;10493229;28;20447;-70
2022/03/02 11:41:33;;;;;;;0.00;0.00;;;;;;;6.85;74.99;102694.03;10498290;28;20388;-70
2022/03/02 11:46:33;;;;;;;;;;;;;;;6.82;77.91;102700.34;10508594;28;20025;-70
2022/03/02 11:51:33;;;;;;;0.00;0.00;;;;;;;6.89;76.66;102682.28;10495703;28;19912;-70
2022/03/02 11:56:34;;;;;;;0.00;0.00;;;;;;;7.00;76.71;102686.03;10493357;28;20031;-70
2022/03/02 12:01:50;;;;;;;0.00;0.00;;;;;;;7.04;73.35;102676.13;10492270;28;20036;-70
2022/03/02 12:06:52;;;;;;;0.00;0.00;;;;;;;7.00;76.20;102678.06;10476098;28;20111;-70
2022/03/02 12:12:06;;;;;;;0.00;0.00;;;;;;;7.03;75.77;102667.28;10500124;28;20103;-70
2022/03/02 12:17:13;;;;;;;0.07;0.07;;;;;;;7.09;75.05;102660.78;10488836;28;20298;-73
2022/03/02 12:22:13;;;;;;;0.10;0.10;;;;;;;7.14;72.85;102649.91;10492077;28;20021;-71
2022/03/02 12:27:15;;;;;;;0.00;0.00;;;;;;;7.12;74.84;102643.84;10489791;28;20023;-70
2022/03/02 12:32:17;;;;;;;0.00;0.00;;;;;;;7.15;74.57;102638.34;10480224;28;20087;-71
2022/03/02 12:37:20;;;;;;;0.00;0.00;;;;;;;7.28;79.30;102633.19;10482042;28;20032;-71
2022/03/02 12:42:20;;;;;;;0.00;0.00;;;;;;;7.28;73.50;102619.94;10460935;28;20022;-71
2022/03/02 12:47:24;;;;;;;0.00;0.00;;;;;;;7.31;72.73;102623.25;10487247;28;20415;-71
2022/03/02 12:52:27;;;;;;;0.00;0.00;;;;;;;7.34;76.79;102623.06;10479856;28;20386;-70
2022/03/02 12:57:30;;;;;;;0.00;0.00;;;;;;;7.40;73.65;102605.91;10494798;28;20513;-71
2022/03/02 13:02:35;;;;;;;0.00;0.00;;;;;;;7.45;76.13;102606.50;10490143;28;20028;-71
2022/03/02 13:07:36;;;;;;;0.00;0.00;;;;;;;7.42;71.92;102601.38;10476207;28;20510;-71
2022/03/02 13:12:41;;;;;;;0.00;0.00;;;;;;;7.43;72.53;102587.16;10476573;28;20024;-70
2022/03/02 13:17:41;;;;;;;0.10;0.10;;;;;;;7.48;72.38;102587.72;10447364;28;20025;-71
2022/03/02 13:22:42;;;;;;;0.10;0.10;;;;;;;7.49;72.72;102586.78;10474633;28;20552;-71
2022/03/02 13:28:11;;;;;;;0.00;0.00;;;;;;;7.49;72.49;102569.06;10483366;28;20036;-71
2022/03/02 13:33:11;;;;;;;0.00;0.00;;;;;;;7.54;73.87;102582.03;10487742;28;20111;-71
2022/03/02 13:38:11;;;;;;;0.00;0.00;;;;;;;7.53;73.08;102563.56;10493129;28;20025;-71
2022/03/02 13:43:34;;;;;;;0.10;0.10;;;;;;;7.54;73.47;102570.59;10493499;28;20757;-71
2022/03/02 13:48:34;;;;;;;0.00;0.00;;;;;;;7.46;71.16;102552.50;10467129;28;20036;-71
2022/03/02 13:53:36;;;;;;;0.08;0.08;;;;;;;7.48;71.88;102558.56;10495987;28;20376;-71
2022/03/02 13:58:39;;;;;;;0.10;0.10;;;;;;;7.50;72.48;102559.31;10493610;28;20131;-71
2022/03/02 14:03:45;;;;;;;0.00;0.00;;;;;;;7.55;77.58;102551.91;10493171;28;20123;-71
2022/03/02 14:08:48;;;;;;;0.00;0.00;;;;;;;7.57;75.15;102549.19;10495493;28;20028;-71
2022/03/02 14:13:49;;;;;;;0.00;0.00;;;;;;;7.58;74.37;102543.75;10489390;28;20046;-71
2022/03/02 14:19:08;;;;;;;0.10;0.10;;;;;;;7.56;74.71;102553.59;10479132;28;20450;-71
2022/03/02 14:24:12;;;;;;;0.00;0.00;;;;;;;7.59;73.65;102545.50;10487308;28;20025;-71
2022/03/02 14:29:13;;;;;;;0.00;0.00;;;;;;;7.60;73.65;102543.69;10486390;28;20059;-71
2022/03/02 14:34:14;;;;;;;0.00;0.00;;;;;;;7.54;74.47;102544.06;10490765;28;20028;-71
2022/03/02 14:39:14;;;;;;;0.00;0.00;;;;;;;7.52;71.23;102525.59;10472513;28;20027;-71
2022/03/02 14:44:14;;;;;;;0.10;0.10;;;;;;;7.53;75.76;102521.13;10457930;28;20287;-71
2022/03/02 14:49:15;;;;;;;0.00;0.00;;;;;;;7.45;76.35;102517.19;10472593;28;20270;-71
2022/03/02 14:54:16;;;;;;;0.07;0.07;;;;;;;7.40;72.09;102513.13;10485938;28;20360;-71
2022/03/02 14:59:17;;;;;;;0.00;0.00;;;;;;;7.36;78.32;102507.16;10488592;28;20259;-71
2022/03/02 15:04:17;;;;;;;0.10;0.10;;;;;;;7.33;75.41;102507.38;10484302;28;20036;-71
2022/03/02 15:09:17;;;;;;;0.00;0.00;;;;;;;7.30;75.58;102502.25;10486158;28;20024;-71
2022/03/02 15:19:41;;;;;;;0.00;0.00;;;;;;;7.23;77.95;102492.97;10477442;28;20025;-71
2022/03/02 15:24:47;;;;;;;0.00;0.00;;;;;;;7.19;80.26;102497.63;10486454;28;20068;-71
2022/03/02 15:29:47;;;;;;;0.10;0.10;;;;;;;7.11;76.69;102488.44;10493740;28;20268;-71
2022/03/02 15:34:54;;;;;;;0.00;0.00;;;;;;;7.04;78.18;102477.41;10477152;28;20485;-71
2022/03/02 15:39:59;;;;;;;0.10;0.10;;;;;;;6.97;83.35;102478.72;10478867;28;20063;-70
2022/03/02 15:45:13;;;;;;;0.08;0.08;;;;;;;6.92;87.19;102471.06;10480766;28;20036;-71
2022/03/02 15:50:18;;;;;;;;;;;;;;;6.78;85.03;102471.91;10488792;28;20390;-71
2022/03/02 15:55:23;;;;;;;0.00;0.00;;;;;;;6.67;86.50;102462.91;10491374;28;20363;-70
2022/03/02 16:00:26;;;;;;;0.00;0.00;;;;;;;6.53;88.03;102463.75;10491699;28;20024;-70
2022/03/02 16:05:31;;;;;;;0.00;0.00;;;;;;;6.39;90.30;102459.28;10529885;22;20052;-72
2022/03/02 16:10:32;;;;;;;0.00;0.00;;;;;;;6.22;92.32;102457.63;10530803;28;20035;-72
2022/03/02 16:15:42;;;;;;;0.00;0.00;;;;;;;6.00;93.84;102467.78;10506386;28;20428;-72
2022/03/02 16:20:44;;;;;;;0.00;0.00;;;;;;;5.74;94.63;102467.47;10531966;28;20112;-72
2022/03/02 16:25:47;;;;;;;0.00;0.00;;;;;;;5.50;96.50;102452.97;10534777;28;20028;-72
2022/03/02 16:30:50;;;;;;;0.00;0.00;;;;;;;5.28;97.41;102459.47;10534465;28;20113;-72
2022/03/02 16:35:53;;;;;;;0.00;0.00;;;;;;;5.04;97.66;102452.91;10534217;28;20077;-72
2022/03/02 16:40:55;;;;;;;0.00;0.00;;;;;;;4.83;98.70;102446.97;10534479;28;20024;-72
2022/03/02 16:45:55;;;;;;;0.00;0.00;;;;;;;4.63;99.47;102448.06;10534330;28;20024;-72
2022/03/02 16:50:55;;;;;;;0.00;0.00;;;;;;;4.41;100.00;102448.31;10533783;28;20026;-72
2022/03/02 16:55:56;;;;;;;0.00;0.00;;;;;;;4.19;100.00;102452.06;10532176;28;20372;-72
2022/03/02 17:00:56;;;;;;;0.00;0.00;;;;;;;4.00;100.00;102456.53;10531101;28;20024;-72
2022/03/02 17:06:45;;;;;;;0.00;0.00;;;;;;;3.80;100.00;102450.47;10515709;28;20028;-72
2022/03/02 17:11:17;;;;;;;0.00;0.00;;;;;;;3.70;100.00;102453.66;10541925;28;20227;-72
2022/03/02 17:16:17;;;;;;;0.00;0.00;;;;;;;3.59;100.00;102459.44;10542049;28;20428;-72
2022/03/02 17:21:19;;;;;;;0.00;0.00;;;;;;;3.42;100.00;102462.00;10538815;28;20057;-72
2022/03/02 17:26:20;;;;;;;0.00;0.00;;;;;;;3.18;100.00;102456.97;10541183;28;20032;-72
2022/03/02 17:31:20;;;;;;;0.00;0.00;;;;;;;3.10;100.00;102459.09;10541238;28;20027;-72
2022/03/02 17:36:20;;;;;;;0.00;0.00;;;;;;;3.09;100.00;102458.25;10541412;28;20084;-71
2022/03/02 17:41:25;;;;;;;0.00;0.00;;;;;;;3.07;100.00;102470.63;10540529;28;20286;-71
2022/03/02 17:46:25;;;;;;;0.00;0.00;;;;;;;3.12;100.00;102460.75;10541053;28;20341;-72
2022/03/02 17:51:32;;;;;;;0.00;0.00;;;;;;;3.14;100.00;102466.81;10532356;28;20077;-72
2022/03/02 17:56:33;;;;;;;0.00;0.00;;;;;;;3.18;100.00;102471.00;10536371;28;20047;-72
2022/03/02 18:01:33;;;;;;;0.00;0.00;;;;;;;3.17;100.00;102465.78;10539554;28;20012;-72
2022/03/02 18:06:35;;;;;;;0.00;0.00;;;;;;;3.11;100.00;102464.31;10539954;28;20036;-72
2022/03/02 18:11:37;;;;;;;0.00;0.00;;;;;;;3.06;100.00;102468.94;10539836;28;20111;-72
2022/03/02 18:16:43;;;;;;;0.00;0.00;;;;;;;2.92;100.00;102472.19;10521320;28;20032;-72
2022/03/02 18:21:44;;;;;;;0.00;0.00;;;;;;;2.72;100.00;102480.97;10539900;28;20347;-72
2022/03/02 18:26:50;;;;;;;0.00;0.00;;;;;;;2.51;100.00;102473.19;10539004;28;20028;-72
2022/03/02 18:31:51;;;;;;;0.00;0.00;;;;;;;2.30;100.00;102478.44;10539011;28;20028;-71
2022/03/02 18:36:53;;;;;;;0.00;0.00;;;;;;;2.23;100.00;102479.59;10538714;28;20016;-71
2022/03/02 18:41:54;;;;;;;0.00;0.00;;;;;;;2.14;100.00;102480.84;10539289;28;20386;-71
2022/03/02 18:46:56;;;;;;;0.00;0.00;;;;;;;2.08;100.00;102473.22;10520519;28;20055;-72
2022/03/02 18:51:58;;;;;;;0.00;0.00;;;;;;;1.98;100.00;102478.00;10538280;28;20020;-71
2022/03/02 18:56:59;;;;;;;0.00;0.00;;;;;;;1.89;100.00;102483.66;10538254;28;20355;-71
2022/03/02 19:02:01;;;;;;;0.00;0.00;;;;;;;1.76;100.00;102478.00;10537401;28;20016;-72
2022/03/02 19:07:02;;;;;;;0.00;0.00;;;;;;;1.64;100.00;102475.03;10526208;28;20379;-71
2022/03/02 19:12:04;;;;;;;0.00;0.00;;;;;;;1.51;100.00;102478.16;10535724;28;20290;-72
2022/03/02 19:17:04;;;;;;;0.00;0.00;;;;;;;1.42;100.00;102480.25;10536098;28;20106;-72
2022/03/02 19:22:06;;;;;;;0.10;0.10;;;;;;;1.30;100.00;102476.34;10517273;28;20030;-72
2022/03/02 19:27:09;;;;;;;0.00;0.00;;;;;;;1.19;100.00;102481.13;10529719;28;20020;-71
2022/03/02 19:32:09;;;;;;;0.00;0.00;;;;;;;1.16;100.00;102482.09;10517791;28;20442;-71
2022/03/02 19:37:11;;;;;;;0.00;0.00;;;;;;;1.11;100.00;102484.06;10536141;28;20027;-72
2022/03/02 19:42:11;;;;;;;0.00;0.00;;;;;;;1.04;100.00;102485.19;10518239;28;20031;-72
2022/03/02 19:47:11;;;;;;;0.00;0.00;;;;;;;0.94;100.00;102482.06;10535920;28;20035;-72
2022/03/02 19:52:12;;;;;;;0.00;0.00;;;;;;;0.87;100.00;102478.81;10536083;28;20050;-71
2022/03/02 19:57:15;;;;;;;0.00;0.00;;;;;;;0.80;100.00;102482.56;10539336;28;20026;-71
2022/03/02 20:02:15;;;;;;;0.00;0.00;;;;;;;0.71;100.00;102474.19;10522895;28;20020;-72
2022/03/02 20:07:15;;;;;;;0.10;0.10;;;;;;;0.62;100.00;102483.22;10528532;28;20478;-71
2022/03/02 20:12:15;;;;;;;0.00;0.00;;;;;;;0.52;100.00;102469.56;10534129;28;20263;-71
2022/03/02 20:17:16;;;;;;;0.00;0.00;;;;;;;0.44;100.00;102469.84;10533385;28;20272;-71
2022/03/02 20:22:17;;;;;;;0.00;0.00;;;;;;;0.38;100.00;102471.84;10525985;28;20020;-71
2022/03/02 20:27:18;;;;;;;0.00;0.00;;;;;;;0.28;100.00;102471.28;10532502;28;20024;-72
2022/03/02 20:32:19;;;;;;;0.00;0.00;;;;;;;0.18;100.00;102475.16;10533257;28;20012;-71
2022/03/02 20:37:20;;;;;;;0.03;0.03;;;;;;;0.06;100.00;102479.03;10532901;28;20102;-71
2022/03/02 20:42:20;;;;;;;0.00;0.00;;;;;;;0.02;100.00;102472.16;10532991;28;20453;-71
2022/03/02 20:47:20;;;;;;;0.10;0.10;;;;;;;-0.04;100.00;102483.69;10502882;28;20278;-68
2022/03/02 20:52:21;;;;;;;0.05;0.05;;;;;;;-0.07;100.00;102488.19;10522513;28;20403;-68
2022/03/02 20:57:21;;;;;;;0.00;0.00;;;;;;;-0.10;100.00;102480.44;10513555;28;20482;-68
2022/03/02 21:02:21;;;;;;;0.00;0.00;;;;;;;-0.12;100.00;102493.56;10532021;28;20707;-68
2022/03/02 21:07:22;;;;;;;0.10;0.10;;;;;;;-0.15;100.00;102492.81;10532358;28;20039;-68
2022/03/02 21:12:22;;;;;;;0.00;0.00;;;;;;;-0.14;100.00;102479.69;10532451;28;20303;-68
2022/03/02 21:17:22;;;;;;;0.00;0.00;;;;;;;-0.19;100.00;102465.03;10531670;28;20772;-68
2022/03/02 21:22:23;;;;;;;0.10;0.10;;;;;;;-0.29;100.00;102467.06;10532088;28;20274;-68
2022/03/02 21:27:23;;;;;;;0.10;0.10;;;;;;;-0.33;100.00;102457.59;10531888;28;20031;-68
2022/03/02 21:32:24;;;;;;;0.05;0.05;;;;;;;-0.35;100.00;102469.88;10527978;28;20025;-68
2022/03/02 21:37:24;;;;;;;0.10;0.10;;;;;;;-0.41;100.00;102468.31;10496024;28;20259;-68
2022/03/02 21:42:24;;;;;;;0.00;0.00;;;;;;;-0.46;100.00;102471.09;10489272;28;20383;-67
2022/03/02 21:47:25;;;;;;;0.00;0.00;;;;;;;-0.54;100.00;102474.84;10487594;28;20073;-68
2022/03/02 21:52:25;;;;;;;0.10;0.10;;;;;;;-0.58;100.00;102471.47;10493538;28;20021;-67
2022/03/02 21:57:26;;;;;;;0.00;0.00;;;;;;;-0.61;100.00;102457.59;10533730;28;20096;-67
2022/03/02 22:02:26;;;;;;;0.10;0.10;;;;;;;-0.61;100.00;102460.22;10538794;28;20023;-68
2022/03/02 22:07:26;;;;;;;0.10;0.10;;;;;;;-0.60;100.00;102452.31;10538321;28;20024;-67
2022/03/02 22:12:28;;;;;;;0.00;0.00;;;;;;;-0.69;100.00;102456.09;10538569;28;20502;-68
2022/03/02 22:17:28;;;;;;;0.10;0.10;;;;;;;-0.76;100.00;102441.47;10538046;28;20321;-68
2022/03/02 22:22:29;;;;;;;0.10;0.10;;;;;;;-0.78;100.00;102458.13;10538477;28;20035;-67
2022/03/02 22:27:29;;;;;;;0.00;0.00;;;;;;;-0.82;100.00;102451.25;10516226;28;20035;-68
2022/03/02 22:32:29;;;;;;;0.00;0.00;;;;;;;-0.83;100.00;102453.03;10528677;28;20630;-67
2022/03/02 22:37:30;;;;;;;0.10;0.10;;;;;;;-0.79;100.00;102448.56;10498250;28;20081;-67
2022/03/02 22:42:30;;;;;;;0.08;0.08;;;;;;;-0.74;100.00;102447.50;10504655;28;20834;-67
2022/03/02 22:47:31;;;;;;;0.10;0.10;;;;;;;-0.66;100.00;102447.28;10536758;28;20081;-68
2022/03/02 22:52:34;;;;;;;0.10;0.10;;;;;;;-0.71;100.00;102447.41;10537528;28;20311;-67
2022/03/02 22:57:34;;;;;;;0.00;0.00;;;;;;;-0.72;100.00;102460.56;10535661;28;20059;-68
2022/03/02 23:02:36;;;;;;;0.10;0.10;;;;;;;-0.76;100.00;102443.22;10531005;28;20055;-67
2022/03/02 23:18:14;;;;;;;0.10;0.10;;;;;;;-1.09;100.00;102450.31;10535977;28;20467;-67
2022/03/02 23:23:15;;;;;;;0.10;0.10;;;;;;;-1.19;100.00;102434.91;10517601;28;20016;-67
2022/03/02 23:28:15;;;;;;;0.03;0.03;;;;;;;-1.27;100.00;102425.56;10527055;28;20020;-67